Home   Weather   Spain   Sevilla   Past weeks
Flag for Spain

Past Weather in Sevilla, Seville, Spain — May 2022

Currently: 75 °F. Clear. (Weather station: Sevilla / San Pablo, Spain). See more current weather

May 2022 Weather in Sevilla — Graph

°F

High & Low Weather Summary for May 2022

 TemperatureHumidityPressure
High104 °F (May 20, 5:00 pm)100% (May 3, 3:00 am)30.18 "Hg (May 3, 3:00 am)
Low52 °F (May 2, 7:00 am)12% (May 27, 4:30 pm)29.80 "Hg (May 3, 5:30 am)
Average73 °F53%30.00 "Hg
* Reported May 1 12:00 am — May 31 11:30 pm, Sevilla. Weather by CustomWeather, © 2024

Note: Actual official high and low records may vary slightly from our data, if they occured in-between our weather recording intervals... More about our weather records

Sevilla Weather History for May 1, 2022

Scroll right to see more
 ConditionsComfort  
Time TempWeatherWind HumidityBarometerVisibility
12:00 am
Sun, May 1
66 °FPassing clouds.7 mph64%30.15 "HgN/A
12:30 am66 °FClear.8 mph64%30.15 "Hg10 mi
1:00 am66 °FClear.7 mph60%30.15 "Hg10 mi
1:30 am66 °FClear.2 mph56%30.15 "Hg10 mi
3:00 am59 °FClear.2 mph77%30.15 "Hg10 mi
3:30 am63 °FClear.2 mph68%30.12 "Hg10 mi
4:00 am61 °FClear.5 mph72%30.12 "Hg10 mi
4:30 am59 °FClear.8 mph77%30.12 "Hg10 mi
5:00 am59 °FClear.7 mph77%30.12 "Hg10 mi
5:30 am57 °FClear.2 mph82%30.12 "Hg10 mi
6:00 am57 °FPassing clouds.3 mph82%30.12 "HgN/A
6:30 am57 °FClear.2 mph82%30.12 "Hg10 mi
7:00 am59 °FClear.2 mph82%30.12 "Hg10 mi
7:30 am57 °FSunny.2 mph82%30.12 "Hg10 mi
8:00 am57 °FSunny.No wind88%30.12 "Hg10 mi
8:30 am61 °FSunny.No wind83%30.15 "Hg10 mi
9:00 am63 °FSunny.No wind73%30.15 "Hg10 mi
9:30 am64 °FSunny.1 mph68%30.15 "Hg10 mi
10:00 am64 °FSunny.1 mph64%30.15 "Hg10 mi
10:30 am66 °FSunny.1 mph68%30.15 "Hg10 mi
11:00 am68 °FSunny.1 mph64%30.15 "Hg10 mi
11:30 am72 °FSunny.No wind57%30.15 "Hg10 mi
12:00 pm72 °FSunny.1 mph57%30.15 "Hg10 mi
12:30 pm73 °FSunny.2 mph50%30.12 "Hg10 mi
1:00 pm75 °FSunny.1 mph44%30.12 "Hg10 mi
1:30 pm77 °FSunny.2 mph42%30.12 "Hg10 mi
2:00 pm79 °FSunny.2 mph42%30.09 "Hg10 mi
2:30 pm81 °FSunny.2 mph34%30.09 "Hg10 mi
3:00 pm82 °FSunny.3 mph35%30.07 "Hg10 mi
3:30 pm82 °FSunny.6 mph32%30.07 "Hg10 mi
4:00 pm84 °FPassing clouds.9 mph33%30.07 "HgN/A
4:30 pm82 °FPassing clouds.12 mph32%30.04 "HgN/A
5:00 pm82 °FPassing clouds.8 mph32%30.04 "HgN/A
5:30 pm84 °FPassing clouds.14 mph31%30.04 "HgN/A
6:00 pm84 °FPassing clouds.15 mph29%30.01 "HgN/A
6:30 pm82 °FPassing clouds.15 mph30%30.01 "HgN/A
7:00 pm82 °FSunny.14 mph28%30.01 "Hg10 mi
7:30 pm81 °FPassing clouds.15 mph26%30.01 "HgN/A
8:00 pm81 °FSunny.14 mph28%30.01 "Hg10 mi
8:30 pm79 °FSunny.16 mph28%30.01 "Hg10 mi
9:30 pm73 °FClear.10 mph38%30.01 "Hg10 mi
10:00 pm73 °FClear.10 mph38%30.01 "Hg10 mi
10:30 pm70 °FClear.9 mph46%30.04 "Hg10 mi
11:00 pm70 °FClear.9 mph46%30.04 "Hg10 mi
11:30 pm70 °FClear.8 mph46%30.04 "Hg10 mi
Weather by CustomWeather, © 2024

See weather overview